createdAt,value
2019-03-23T00:03:26.345Z,12.5
2019-03-23T00:13:25.562Z,12.8
2019-03-23T00:23:24.774Z,13.2
2019-03-23T00:33:23.986Z,12.6
2019-03-23T00:43:23.203Z,12.6
2019-03-23T00:53:22.423Z,13
2019-03-23T01:03:21.742Z,13.1
2019-03-23T01:13:21.057Z,13.1
2019-03-23T01:23:20.384Z,12.6
2019-03-23T01:33:19.690Z,12.6
2019-03-23T01:43:19.010Z,13.1
2019-03-23T01:53:18.271Z,12.4
2019-03-23T02:03:17.484Z,13.2
2019-03-23T02:13:16.699Z,12.8
2019-03-23T02:23:15.913Z,12.5
2019-03-23T02:33:15.128Z,12.5
2019-03-23T02:43:14.340Z,12.7
2019-03-23T02:53:13.560Z,13.2
2019-03-23T03:03:12.769Z,12.7
2019-03-23T03:16:54.607Z,12.8
2019-03-23T03:28:49.659Z,12.3
2019-03-23T03:38:48.871Z,13
2019-03-23T03:48:48.084Z,12.9
2019-03-23T03:58:47.297Z,12.8
2019-03-23T04:04:32.534Z,13.1
2019-03-23T04:09:10.447Z,13.1
2019-03-23T04:13:39.745Z,13.2
2019-03-23T04:23:38.957Z,12.6
2019-03-23T04:33:38.169Z,12.5
2019-03-23T04:43:37.380Z,12.9
2019-03-23T04:53:36.595Z,12.5
2019-03-23T05:03:35.804Z,12.5
2019-03-23T05:13:35.036Z,12.6
2019-03-23T05:23:34.353Z,14.2
2019-03-23T05:33:33.666Z,13.8
2019-03-23T05:43:32.984Z,14.4
2019-03-23T05:53:32.296Z,14.7
2019-03-23T06:03:31.611Z,14.7
2019-03-23T06:13:30.879Z,14.4
2019-03-23T06:23:30.091Z,14
2019-03-23T06:33:29.305Z,14.3
2019-03-23T06:43:28.520Z,14
2019-03-23T06:53:27.733Z,14.3
2019-03-23T07:03:26.948Z,14.6
2019-03-23T07:13:26.163Z,13.8
2019-03-23T07:23:25.379Z,14.2
2019-03-23T07:33:24.596Z,14.4
2019-03-23T07:43:23.810Z,14.7
2019-03-23T07:53:23.025Z,13.9
2019-03-23T08:03:22.245Z,14.7
2019-03-23T08:13:21.545Z,14.7
2019-03-23T08:23:20.670Z,14.5
2019-03-23T08:33:19.885Z,14.7
2019-03-23T08:43:19.101Z,14.1
2019-03-23T08:53:18.318Z,13.8
2019-03-23T09:03:17.533Z,14.3
2019-03-23T09:13:16.756Z,14.4
2019-03-23T09:23:16.709Z,14.2
2019-03-23T09:33:15.926Z,14.3
2019-03-23T09:43:15.143Z,14.5
2019-03-23T09:53:14.361Z,14.6
2019-03-23T10:03:13.577Z,13.9
2019-03-23T10:13:12.793Z,13.9
2019-03-23T10:23:12.007Z,14.5
2019-03-23T10:33:11.222Z,14.4
2019-03-23T10:43:10.440Z,14.3
2019-03-23T10:53:09.654Z,14.6
2019-03-23T11:03:08.870Z,14.5
2019-03-23T11:13:08.088Z,14.4
2019-03-23T11:23:07.306Z,14
2019-03-23T11:33:06.528Z,14.6
2019-03-23T11:43:05.751Z,14.2
2019-03-23T11:53:04.982Z,14.2
2019-03-23T12:03:04.196Z,14.7
2019-03-23T12:13:03.419Z,14.3
2019-03-23T12:23:02.635Z,14.2
2019-03-23T12:33:01.852Z,14.2
2019-03-23T12:43:01.071Z,14.7
2019-03-23T12:53:00.289Z,14.4
2019-03-23T13:02:59.513Z,14
2019-03-23T13:12:58.721Z,13.9
2019-03-23T13:22:57.941Z,14
2019-03-23T13:32:57.154Z,14.4
2019-03-23T13:42:56.372Z,14.7
2019-03-23T13:52:55.587Z,12.7
2019-03-23T14:02:54.815Z,13.1
2019-03-23T14:12:54.022Z,12.8
2019-03-23T14:23:02.257Z,13.3
2019-03-23T14:32:52.457Z,12.7
2019-03-23T14:42:51.859Z,12.7
2019-03-23T14:49:05.690Z,13.1
2019-03-23T14:59:04.906Z,12.6
2019-03-23T15:09:04.124Z,13
2019-03-23T15:19:03.341Z,13.2
2019-03-23T15:28:44.583Z,12.6
2019-03-23T15:38:43.798Z,12.5
2019-03-23T15:48:43.015Z,13
2019-03-23T15:58:42.233Z,13.1
2019-03-23T16:08:41.455Z,13.2
2019-03-23T16:18:40.677Z,12.7
2019-03-23T16:28:39.914Z,13.2
2019-03-23T16:38:39.237Z,13
2019-03-23T16:48:38.561Z,13
2019-03-23T16:58:37.900Z,12.9
2019-03-23T17:08:37.214Z,13.1
2019-03-23T17:18:36.536Z,13.1
2019-03-23T17:28:35.805Z,12.7
2019-03-23T17:38:35.030Z,12.6
2019-03-23T17:48:34.244Z,12.8
2019-03-23T17:58:33.469Z,12.8
2019-03-23T18:08:32.683Z,12.5
2019-03-23T18:18:33.180Z,13.1
2019-03-23T18:28:32.396Z,12.5
2019-03-23T18:38:31.613Z,13.2
2019-03-23T18:48:30.831Z,12.8
2019-03-23T18:58:30.057Z,13.1
2019-03-23T19:02:36.565Z,13.2
2019-03-23T19:12:35.777Z,12.5
2019-03-23T19:22:34.994Z,13.2
2019-03-23T19:36:14.657Z,12.8
2019-03-23T19:46:13.875Z,12.6
2019-03-23T19:56:13.092Z,12.6
2019-03-23T20:06:12.312Z,13
2019-03-23T20:16:11.530Z,12.6
2019-03-23T20:26:10.750Z,12.4
2019-03-23T20:31:54.566Z,12.8
2019-03-23T20:41:53.782Z,13.1
2019-03-23T20:51:53.006Z,12.5
2019-03-23T21:01:52.239Z,12.6
2019-03-23T21:13:00.456Z,13.1
2019-03-23T21:22:59.635Z,12.9
2019-03-23T21:32:58.851Z,13.1
2019-03-23T21:42:58.072Z,12.7
2019-03-23T21:52:57.286Z,13.2
2019-03-23T22:02:56.505Z,12.8
2019-03-23T22:12:55.732Z,12.6
2019-03-23T22:22:55.051Z,12.5
2019-03-23T22:32:54.369Z,12.8
2019-03-23T22:42:53.692Z,13.2
2019-03-23T22:52:53.012Z,12.4
2019-03-23T23:02:52.334Z,12.8
2019-03-23T23:12:51.605Z,12.6
2019-03-23T23:22:50.820Z,13
2019-03-23T23:32:50.036Z,13
2019-03-23T23:42:49.259Z,12.7
2019-03-23T23:52:48.469Z,12.6
